Time;durP1;ratioP1;P1;durP2;ratioP2;P2;SDS_P1;SDS_P2;PMS_P1;PMS_P2;Temp;Humidity;BMP_temperature;BMP_pressure;BME280_temperature;BME280_humidity;BME280_pressure;Samples;Min_cycle;Max_cycle;Signal;HPM_P1;HPM_P2
2022/09/27 00:01:52;;;;;;;3.00;2.77;;;19.80;57.40;;;;;;4985246;28;20452;-79
2022/09/27 00:04:19;;;;;;;3.27;3.07;;;19.80;57.50;;;;;;4993779;28;20438;-79
2022/09/27 00:06:47;;;;;;;3.30;3.07;;;19.80;57.40;;;;;;4994531;28;20440;-78
2022/09/27 00:09:15;;;;;;;4.67;3.20;;;19.80;57.40;;;;;;4991749;28;20839;-78
2022/09/27 00:11:43;;;;;;;3.17;2.93;;;19.80;57.50;;;;;;4986580;28;20469;-78
2022/09/27 00:14:13;;;;;;;3.53;3.20;;;19.80;57.50;;;;;;4975970;28;20442;-78
2022/09/27 00:16:42;;;;;;;3.30;3.10;;;19.70;57.40;;;;;;4975709;28;20474;-78
2022/09/27 00:19:12;;;;;;;4.20;3.23;;;19.70;57.40;;;;;;4983172;28;20451;-78
2022/09/27 00:21:40;;;;;;;4.20;3.30;;;19.70;57.60;;;;;;4986953;28;20481;-78
2022/09/27 00:24:11;;;;;;;4.10;3.40;;;19.70;57.40;;;;;;4981195;28;20461;-79
2022/09/27 00:26:39;;;;;;;4.00;3.50;;;19.70;57.50;;;;;;4991505;28;20507;-78
2022/09/27 00:29:07;;;;;;;3.70;3.40;;;19.70;57.50;;;;;;4990953;28;20437;-78
2022/09/27 00:31:37;;;;;;;4.70;3.53;;;19.70;57.50;;;;;;4990304;28;20469;-78
2022/09/27 00:34:05;;;;;;;3.60;3.30;;;19.70;57.60;;;;;;4986097;28;20465;-78
2022/09/27 00:36:33;;;;;;;3.57;3.13;;;19.70;57.40;;;;;;4996597;28;20480;-78
2022/09/27 00:39:01;;;;;;;3.30;3.10;;;19.70;57.50;;;;;;4994663;28;20452;-79
2022/09/27 00:41:31;;;;;;;4.00;3.10;;;19.70;57.60;;;;;;4993364;28;20485;-79
2022/09/27 00:44:00;;;;;;;3.90;3.13;;;19.60;57.30;;;;;;4988897;28;20465;-79
2022/09/27 00:46:29;;;;;;;6.70;3.70;;;19.60;57.60;;;;;;4985791;28;20457;-79
2022/09/27 00:49:05;;;;;;;3.20;3.00;;;19.60;57.50;;;;;;4993561;28;20461;-79
2022/09/27 00:51:34;;;;;;;3.90;3.10;;;19.60;57.50;;;;;;4986282;28;20493;-79
2022/09/27 00:54:02;;;;;;;3.50;3.20;;;19.60;57.50;;;;;;4998764;28;20944;-79
2022/09/27 00:56:30;;;;;;;4.87;3.73;;;19.60;57.50;;;;;;4997117;28;20465;-79
2022/09/27 00:59:01;;;;;;;4.40;3.60;;;19.60;57.60;;;;;;4995081;28;20480;-79
2022/09/27 01:01:30;;;;;;;4.07;3.63;;;19.60;57.60;;;;;;4993730;28;20477;-79
2022/09/27 01:04:00;;;;;;;5.20;3.83;;;19.60;57.70;;;;;;4988310;28;20512;-80
2022/09/27 01:06:29;;;;;;;4.73;3.87;;;19.60;57.60;;;;;;4994988;28;20449;-79
2022/09/27 01:08:58;;;;;;;3.43;3.13;;;19.60;57.50;;;;;;4996060;28;20458;-78
2022/09/27 01:11:33;;;;;;;4.07;3.60;;;19.60;57.60;;;;;;4997253;28;20481;-79
2022/09/27 01:14:11;;;;;;;3.50;2.90;;;19.60;57.70;;;;;;4994274;28;20471;-79
2022/09/27 01:16:42;;;;;;;3.43;3.13;;;19.50;57.50;;;;;;4991859;28;20491;-78
2022/09/27 01:19:14;;;;;;;6.03;3.40;;;19.50;57.70;;;;;;4991201;28;20461;-79
2022/09/27 01:21:49;;;;;;;5.20;3.30;;;19.50;57.60;;;;;;4980344;28;20462;-79
2022/09/27 01:24:37;;;;;;;5.00;3.43;;;19.50;57.50;;;;;;5000385;28;20448;-78
2022/09/27 01:27:40;;;;;;;3.50;3.20;;;19.50;57.70;;;;;;4999501;28;20457;-79
2022/09/27 01:30:20;;;;;;;3.50;3.20;;;19.50;57.60;;;;;;5001073;28;20461;-79
2022/09/27 01:32:52;;;;;;;3.40;3.20;;;19.50;57.80;;;;;;5002958;28;20433;-79
2022/09/27 01:35:22;;;;;;;5.60;3.17;;;19.50;57.70;;;;;;5001284;28;20502;-79
2022/09/27 01:37:52;;;;;;;3.40;3.10;;;19.40;57.70;;;;;;4996329;28;20485;-80
2022/09/27 01:40:23;;;;;;;3.93;3.47;;;19.50;58.50;;;;;;4993730;28;20477;-78
2022/09/27 01:42:55;;;;;;;3.50;3.20;;;19.50;57.80;;;;;;4992202;28;20457;-79
2022/09/27 01:45:26;;;;;;;3.70;3.37;;;19.50;57.90;;;;;;4992893;28;20461;-78
2022/09/27 01:47:56;;;;;;;6.17;3.50;;;19.40;57.80;;;;;;4994434;28;20513;-78
2022/09/27 01:50:26;;;;;;;5.77;3.60;;;19.50;58.00;;;;;;4992216;28;20480;-78
2022/09/27 01:52:56;;;;;;;3.77;3.40;;;19.50;57.80;;;;;;4987057;28;20432;-79
2022/09/27 01:55:26;;;;;;;6.60;3.30;;;19.50;57.90;;;;;;4990359;28;20441;-78
2022/09/27 01:57:57;;;;;;;3.20;3.00;;;19.50;57.90;;;;;;4982459;28;20465;-79
2022/09/27 02:00:26;;;;;;;3.37;3.10;;;19.50;57.90;;;;;;4988715;28;20509;-78
2022/09/27 02:02:55;;;;;;;3.13;2.87;;;19.50;57.60;;;;;;4997073;28;20481;-78
2022/09/27 02:05:25;;;;;;;4.70;3.10;;;19.40;57.80;;;;;;4996872;28;20437;-78
2022/09/27 02:07:55;;;;;;;3.50;3.20;;;19.50;57.80;;;;;;4978067;28;20457;-79
2022/09/27 02:10:24;;;;;;;3.70;3.40;;;19.40;57.80;;;;;;4982201;28;20478;-78
2022/09/27 02:12:57;;;;;;;3.73;3.33;;;19.40;57.90;;;;;;4995356;28;20464;-78
2022/09/27 02:15:26;;;;;;;3.43;3.13;;;19.40;57.90;;;;;;4992129;28;20457;-78
2022/09/27 02:17:56;;;;;;;3.40;3.10;;;19.40;57.90;;;;;;4993657;28;20530;-79
2022/09/27 02:20:27;;;;;;;3.47;3.03;;;19.40;58.00;;;;;;4987686;28;20525;-78
2022/09/27 02:22:57;;;;;;;3.43;3.00;;;19.40;58.00;;;;;;4991286;28;20453;-78
2022/09/27 02:25:27;;;;;;;2.93;2.73;;;19.40;58.10;;;;;;4995573;28;20440;-78
2022/09/27 02:27:59;;;;;;;5.90;3.27;;;19.40;58.00;;;;;;4991492;28;20512;-78
2022/09/27 02:30:28;;;;;;;3.60;3.33;;;19.40;57.90;;;;;;4996519;28;20519;-77
2022/09/27 02:32:56;;;;;;;3.90;3.60;;;19.30;57.80;;;;;;4991808;28;20592;-77
2022/09/27 02:35:25;;;;;;;3.70;3.37;;;19.40;58.30;;;;;;4994373;28;20457;-78
2022/09/27 02:37:53;;;;;;;3.53;3.23;;;19.40;57.90;;;;;;4996091;28;20484;-78
2022/09/27 02:40:21;;;;;;;3.30;3.03;;;19.40;57.80;;;;;;4991782;28;20474;-79
2022/09/27 02:42:49;;;;;;;5.23;3.63;;;19.30;58.00;;;;;;4991008;28;20501;-78
2022/09/27 02:45:17;;;;;;;4.70;3.30;;;19.40;57.90;;;;;;4992529;28;20457;-78
2022/09/27 02:47:59;;;;;;;5.03;3.23;;;19.30;57.80;;;;;;4983876;28;20454;-78
2022/09/27 02:50:36;;;;;;;3.83;3.40;;;19.30;57.90;;;;;;4986923;28;20477;-77
2022/09/27 02:53:07;;;;;;;4.80;3.00;;;19.30;57.90;;;;;;4991764;28;20457;-78
2022/09/27 02:55:41;;;;;;;3.37;3.17;;;19.30;58.10;;;;;;4988066;28;20515;-78
2022/09/27 02:58:14;;;;;;;4.20;3.27;;;19.20;57.90;;;;;;4994568;28;20468;-78
2022/09/27 03:00:45;;;;;;;4.43;3.20;;;19.30;58.10;;;;;;4993416;28;20972;-79
2022/09/27 03:03:15;;;;;;;3.80;3.50;;;19.30;58.10;;;;;;4982476;28;20452;-78
2022/09/27 03:05:44;;;;;;;5.30;3.30;;;19.30;58.00;;;;;;4993014;28;20444;-78
2022/09/27 03:08:11;;;;;;;3.07;2.87;;;19.20;58.00;;;;;;4995358;28;20445;-79
2022/09/27 03:10:39;;;;;;;3.70;3.27;;;19.30;58.10;;;;;;4988891;28;20469;-78
2022/09/27 03:13:07;;;;;;;3.60;3.30;;;19.30;58.00;;;;;;4990328;28;20496;-78
2022/09/27 03:15:35;;;;;;;4.13;3.33;;;19.20;58.60;;;;;;4992419;28;20449;-79
2022/09/27 03:18:03;;;;;;;3.33;3.03;;;19.30;58.00;;;;;;4983851;28;20478;-78
2022/09/27 03:20:33;;;;;;;3.47;3.17;;;19.30;58.00;;;;;;4988941;28;20476;-78
2022/09/27 03:23:01;;;;;;;5.13;3.57;;;19.30;58.10;;;;;;4994794;28;20453;-78
2022/09/27 03:25:28;;;;;;;4.10;3.70;;;19.30;57.90;;;;;;4990496;28;20445;-78
2022/09/27 03:27:56;;;;;;;3.90;3.57;;;19.20;58.00;;;;;;4991990;28;20488;-79
2022/09/27 03:30:24;;;;;;;3.60;3.17;;;19.20;58.00;;;;;;4994369;28;20496;-78
2022/09/27 03:32:51;;;;;;;3.63;3.33;;;19.30;58.10;;;;;;4993361;28;20453;-78
2022/09/27 03:35:19;;;;;;;3.97;3.50;;;19.20;57.90;;;;;;4983168;28;20462;-77
2022/09/27 03:37:48;;;;;;;3.57;3.27;;;19.20;58.00;;;;;;4993706;28;20469;-77
2022/09/27 03:40:16;;;;;;;5.50;4.17;;;19.20;57.90;;;;;;4984270;28;20469;-78
2022/09/27 03:42:44;;;;;;;4.27;3.87;;;19.20;58.10;;;;;;4989547;28;20433;-77
2022/09/27 03:45:16;;;;;;;3.87;3.57;;;19.20;58.00;;;;;;4985758;28;20466;-77
2022/09/27 03:47:44;;;;;;;3.60;3.30;;;19.20;58.00;;;;;;4987971;28;20829;-77
2022/09/27 03:50:12;;;;;;;6.13;4.10;;;19.20;58.00;;;;;;4990271;28;20544;-78
2022/09/27 03:52:41;;;;;;;4.30;3.30;;;19.20;58.10;;;;;;4993686;28;20519;-78
2022/09/27 03:55:10;;;;;;;3.77;3.43;;;19.20;58.00;;;;;;4993195;28;20464;-78
2022/09/27 03:57:38;;;;;;;5.30;4.43;;;19.20;58.00;;;;;;4984702;28;20489;-77
2022/09/27 04:00:07;;;;;;;4.70;4.10;;;19.20;58.00;;;;;;4993560;28;20457;-77
2022/09/27 04:02:35;;;;;;;4.00;3.70;;;19.20;58.20;;;;;;4982790;28;20471;-77
2022/09/27 04:05:03;;;;;;;5.17;4.13;;;19.20;58.00;;;;;;4988636;28;20557;-77
2022/09/27 04:07:31;;;;;;;12.83;3.70;;;19.10;57.90;;;;;;4992804;28;21024;-78
2022/09/27 04:09:59;;;;;;;4.73;4.20;;;19.10;57.90;;;;;;4992492;28;20481;-77
2022/09/27 04:12:29;;;;;;;5.80;3.73;;;19.10;58.20;;;;;;4992084;28;20462;-78
2022/09/27 04:14:57;;;;;;;4.93;4.10;;;19.10;58.00;;;;;;4981160;28;20470;-78
2022/09/27 04:17:26;;;;;;;4.03;3.63;;;19.10;58.10;;;;;;4986739;28;20466;-78
2022/09/27 04:19:54;;;;;;;3.90;3.50;;;19.10;58.10;;;;;;4980119;28;20524;-78
2022/09/27 04:22:22;;;;;;;4.40;4.00;;;19.10;58.00;;;;;;4990292;28;20473;-78
2022/09/27 04:24:50;;;;;;;4.03;3.63;;;19.10;58.10;;;;;;4989338;28;20450;-78
2022/09/27 04:27:18;;;;;;;8.20;4.27;;;19.10;58.20;;;;;;4991627;28;20461;-79
2022/09/27 04:29:47;;;;;;;4.97;3.97;;;19.10;58.10;;;;;;4989183;28;20473;-78
2022/09/27 04:32:16;;;;;;;4.53;4.13;;;19.10;58.00;;;;;;4992381;28;20457;-78
2022/09/27 04:37:28;;;;;;;5.47;4.10;;;19.10;58.20;;;;;;4991948;28;20516;-78
2022/09/27 04:39:56;;;;;;;6.57;4.40;;;19.10;58.20;;;;;;4992819;28;20469;-78
2022/09/27 04:42:25;;;;;;;4.70;4.27;;;19.10;58.00;;;;;;4991101;28;20489;-78
2022/09/27 04:44:56;;;;;;;5.17;4.60;;;19.10;58.00;;;;;;4992150;28;20485;-79
2022/09/27 04:47:25;;;;;;;5.90;4.57;;;19.10;58.20;;;;;;4992154;28;20435;-79
2022/09/27 04:49:52;;;;;;;6.10;3.97;;;19.10;58.10;;;;;;4991703;28;21015;-79
2022/09/27 04:52:21;;;;;;;4.90;4.40;;;19.10;58.00;;;;;;4988939;28;20458;-79
2022/09/27 04:54:48;;;;;;;4.80;4.30;;;19.10;58.00;;;;;;4983428;28;20516;-79
2022/09/27 04:57:17;;;;;;;6.43;4.87;;;19.10;58.10;;;;;;4988321;28;20457;-79
2022/09/27 04:59:45;;;;;;;7.17;4.47;;;19.10;58.00;;;;;;4992425;28;20476;-79
2022/09/27 05:02:14;;;;;;;7.83;5.30;;;19.00;58.00;;;;;;4986841;28;20458;-79
2022/09/27 05:04:42;;;;;;;4.93;4.27;;;19.00;58.20;;;;;;4993010;28;20449;-78
2022/09/27 05:07:11;;;;;;;4.70;4.23;;;19.00;58.10;;;;;;4991434;28;20441;-79
2022/09/27 05:09:38;;;;;;;6.40;5.00;;;19.00;58.20;;;;;;4992783;28;20445;-79
2022/09/27 05:12:08;;;;;;;4.90;3.90;;;19.10;58.00;;;;;;4986623;28;20458;-79
2022/09/27 05:14:36;;;;;;;4.67;4.00;;;19.10;58.30;;;;;;4990828;28;20457;-79
2022/09/27 05:17:06;;;;;;;4.90;4.37;;;19.00;58.00;;;;;;4993045;28;20457;-79
2022/09/27 05:19:38;;;;;;;7.70;4.70;;;19.00;58.10;;;;;;4990048;28;20473;-79
2022/09/27 05:22:06;;;;;;;5.27;4.50;;;19.00;58.00;;;;;;4990873;28;20995;-79
2022/09/27 05:24:37;;;;;;;7.60;5.90;;;19.10;58.10;;;;;;4983702;28;20457;-79
2022/09/27 05:27:07;;;;;;;8.13;5.23;;;19.10;57.90;;;;;;4988181;28;20449;-79
2022/09/27 05:29:35;;;;;;;5.30;4.80;;;19.00;58.10;;;;;;4981303;28;20472;-78
2022/09/27 05:32:02;;;;;;;8.83;6.70;;;19.00;58.00;;;;;;4988552;28;20440;-80
2022/09/27 05:34:31;;;;;;;6.90;5.27;;;19.00;58.20;;;;;;4991712;28;20458;-79
2022/09/27 05:37:00;;;;;;;10.27;5.97;;;19.00;57.90;;;;;;4991643;28;20445;-79
2022/09/27 05:39:29;;;;;;;9.20;6.40;;;19.00;58.00;;;;;;4985343;28;20481;-78
2022/09/27 05:41:57;;;;;;;8.10;5.93;;;19.00;58.30;;;;;;4992422;28;20445;-79
2022/09/27 05:44:25;;;;;;;11.33;6.07;;;19.00;58.00;;;;;;4991654;28;20469;-79
2022/09/27 05:46:53;;;;;;;7.40;6.30;;;19.00;57.90;;;;;;4983008;28;20487;-79
2022/09/27 05:49:22;;;;;;;7.70;6.27;;;19.00;58.00;;;;;;4990058;28;20452;-79
2022/09/27 05:51:50;;;;;;;9.70;6.57;;;19.00;58.10;;;;;;4992072;28;20450;-79
2022/09/27 05:54:20;;;;;;;8.93;6.50;;;19.00;58.10;;;;;;4991503;28;20457;-79
2022/09/27 05:56:48;;;;;;;6.63;5.80;;;19.00;58.00;;;;;;4991309;28;20458;-79
2022/09/27 05:59:16;;;;;;;8.30;6.37;;;19.10;58.10;;;;;;4990526;28;20473;-79
2022/09/27 06:01:44;;;;;;;8.33;6.80;;;19.00;58.00;;;;;;4978982;28;20478;-79
2022/09/27 06:04:12;;;;;;;8.83;6.70;;;19.10;58.00;;;;;;4980533;28;20462;-79
2022/09/27 06:06:40;;;;;;;11.03;6.90;;;19.10;57.90;;;;;;4992028;28;20444;-79
2022/09/27 06:09:10;;;;;;;9.73;7.03;;;19.00;57.80;;;;;;4991003;28;20453;-79
2022/09/27 06:11:39;;;;;;;9.17;6.70;;;19.10;58.00;;;;;;4992785;28;20464;-78
2022/09/27 06:14:11;;;;;;;9.37;6.57;;;19.00;57.90;;;;;;4981866;28;20462;-78
2022/09/27 06:16:39;;;;;;;8.60;6.00;;;19.10;58.00;;;;;;4990429;28;20519;-79
2022/09/27 06:19:07;;;;;;;9.00;6.50;;;19.00;58.00;;;;;;4987805;28;20512;-79
2022/09/27 06:21:35;;;;;;;7.27;5.80;;;19.00;58.20;;;;;;4989018;28;20473;-79
2022/09/27 06:24:03;;;;;;;7.13;6.20;;;19.10;57.80;;;;;;4988541;28;20457;-79
2022/09/27 06:26:32;;;;;;;8.93;6.30;;;19.10;57.90;;;;;;4990893;28;20453;-79
2022/09/27 06:29:01;;;;;;;8.57;5.20;;;19.10;58.60;;;;;;4986164;28;20445;-79
2022/09/27 06:31:29;;;;;;;8.80;6.97;;;19.10;58.10;;;;;;4987272;28;20479;-78
2022/09/27 06:33:57;;;;;;;7.00;5.60;;;19.10;57.70;;;;;;4984207;28;20480;-79
2022/09/27 06:36:25;;;;;;;7.50;6.00;;;19.10;57.90;;;;;;4986832;28;20485;-78
2022/09/27 06:38:53;;;;;;;8.43;5.77;;;19.20;57.90;;;;;;4990821;28;20527;-80
2022/09/27 06:41:21;;;;;;;6.03;5.30;;;19.20;57.90;;;;;;4991894;28;20544;-80
2022/09/27 06:43:49;;;;;;;8.40;6.17;;;19.30;57.90;;;;;;4988714;28;20464;-79
2022/09/27 06:46:18;;;;;;;10.27;6.37;;;19.20;57.80;;;;;;4988278;28;20484;-78
2022/09/27 06:48:46;;;;;;;7.13;5.83;;;19.30;57.80;;;;;;4984608;28;20454;-78
2022/09/27 06:51:15;;;;;;;8.50;5.70;;;19.30;57.70;;;;;;4992248;28;20979;-78
2022/09/27 06:53:43;;;;;;;6.20;5.20;;;19.40;57.60;;;;;;4985038;28;20468;-78
2022/09/27 06:56:11;;;;;;;6.13;5.00;;;19.40;57.50;;;;;;4993929;28;20468;-78
2022/09/27 07:01:29;;;;;;;6.93;5.50;;;19.50;57.40;;;;;;4994480;28;20901;-79
2022/09/27 07:03:57;;;;;;;6.53;5.30;;;19.50;57.30;;;;;;4986001;28;20485;-78
2022/09/27 07:06:25;;;;;;;7.50;5.70;;;19.60;57.60;;;;;;4990518;28;20475;-79
2022/09/27 07:08:53;;;;;;;5.53;4.93;;;19.60;57.30;;;;;;4989521;28;20450;-78
2022/09/27 07:11:22;;;;;;;6.07;5.47;;;19.70;57.20;;;;;;4993525;28;20476;-79
2022/09/27 07:13:50;;;;;;;7.27;5.37;;;19.70;57.30;;;;;;4993305;28;20462;-78
2022/09/27 07:16:18;;;;;;;5.43;4.90;;;19.70;57.40;;;;;;4994331;28;20445;-79
2022/09/27 07:18:50;;;;;;;5.83;4.60;;;19.80;57.10;;;;;;4988644;28;20465;-79
2022/09/27 07:21:17;;;;;;;6.60;4.63;;;19.80;57.30;;;;;;4991119;28;20499;-79
2022/09/27 07:23:45;;;;;;;6.30;4.87;;;19.80;57.10;;;;;;4995411;28;21006;-78
2022/09/27 07:26:14;;;;;;;6.80;4.20;;;19.90;56.90;;;;;;4993053;28;20469;-79
2022/09/27 07:28:42;;;;;;;5.53;4.53;;;19.90;57.10;;;;;;4989008;28;20457;-78
2022/09/27 07:31:10;;;;;;;4.80;4.30;;;19.90;56.90;;;;;;4988933;28;20509;-78
2022/09/27 07:33:38;;;;;;;4.63;4.13;;;19.90;57.00;;;;;;4991821;28;20489;-78
2022/09/27 07:36:13;;;;;;;4.50;4.10;;;20.00;56.70;;;;;;4989306;28;20461;-78
2022/09/27 07:38:41;;;;;;;4.57;4.10;;;20.00;57.00;;;;;;4994626;28;20461;-78
2022/09/27 07:41:09;;;;;;;5.07;4.03;;;20.00;56.80;;;;;;4989259;28;20485;-79
2022/09/27 07:43:38;;;;;;;4.77;4.07;;;20.00;56.60;;;;;;4987418;28;20451;-79
2022/09/27 07:46:06;;;;;;;3.83;3.53;;;20.00;56.70;;;;;;4992943;28;20457;-78
2022/09/27 07:48:35;;;;;;;4.60;4.20;;;20.00;56.70;;;;;;4990585;28;20535;-79
2022/09/27 07:51:03;;;;;;;6.17;4.53;;;20.00;56.60;;;;;;4993810;28;20465;-78
2022/09/27 07:53:32;;;;;;;4.90;3.70;;;20.00;56.80;;;;;;4998414;28;20460;-79
2022/09/27 07:56:00;;;;;;;3.83;3.43;;;20.00;56.90;;;;;;4997566;28;20457;-79
2022/09/27 07:58:31;;;;;;;4.03;3.67;;;20.00;56.80;;;;;;4997264;28;20460;-80
2022/09/27 08:00:59;;;;;;;4.03;3.63;;;20.00;56.70;;;;;;4990565;28;20508;-79
2022/09/27 08:03:27;;;;;;;4.37;3.97;;;20.00;56.70;;;;;;4992032;28;20476;-80
2022/09/27 08:05:55;;;;;;;3.43;3.13;;;20.00;56.80;;;;;;4997530;28;20469;-79
2022/09/27 08:08:23;;;;;;;4.00;3.70;;;20.00;56.80;;;;;;4997685;28;20479;-79
2022/09/27 08:10:53;;;;;;;3.47;3.17;;;20.00;56.80;;;;;;4999392;28;20464;-79
2022/09/27 08:13:20;;;;;;;3.93;3.53;;;19.90;56.80;;;;;;4997301;28;20463;-79
2022/09/27 08:15:51;;;;;;;3.67;3.33;;;19.90;56.90;;;;;;4998395;28;20428;-79
2022/09/27 08:18:20;;;;;;;3.33;3.00;;;19.90;57.00;;;;;;4998204;28;20455;-79
2022/09/27 08:20:48;;;;;;;5.53;3.40;;;19.80;56.80;;;;;;4997873;28;20539;-79
2022/09/27 08:23:16;;;;;;;3.60;3.13;;;19.80;56.90;;;;;;4999707;28;20448;-78
2022/09/27 08:25:45;;;;;;;3.83;3.07;;;19.80;57.00;;;;;;4980186;28;20455;-80
2022/09/27 08:28:14;;;;;;;3.70;3.40;;;19.80;57.10;;;;;;4978957;28;20457;-79
2022/09/27 08:30:42;;;;;;;8.33;3.30;;;19.80;57.00;;;;;;4978800;28;20463;-79
2022/09/27 08:33:10;;;;;;;3.30;3.00;;;19.80;56.90;;;;;;4978682;28;20450;-79
2022/09/27 08:35:39;;;;;;;3.77;3.30;;;19.80;56.90;;;;;;4978981;28;20453;-79
2022/09/27 08:38:07;;;;;;;3.50;3.20;;;19.80;57.10;;;;;;4990694;28;20460;-78
2022/09/27 08:40:44;;;;;;;3.03;2.73;;;19.80;57.20;;;;;;4995734;28;20484;-79
2022/09/27 08:43:16;;;;;;;3.00;2.63;;;19.90;56.90;;;;;;4980635;28;20496;-78
2022/09/27 08:45:52;;;;;;;3.43;3.17;;;19.80;56.90;;;;;;4979838;28;20438;-78
2022/09/27 08:48:20;;;;;;;3.07;2.70;;;19.80;56.90;;;;;;4979869;28;20442;-78
2022/09/27 08:50:48;;;;;;;4.13;3.00;;;19.90;57.00;;;;;;4979699;28;20454;-79
2022/09/27 08:53:20;;;;;;;4.30;3.00;;;19.90;56.90;;;;;;4979222;28;20440;-80
2022/09/27 08:55:49;;;;;;;2.97;2.70;;;19.80;57.00;;;;;;4990893;28;20484;-79
2022/09/27 08:58:21;;;;;;;3.77;2.73;;;19.90;56.90;;;;;;4998273;28;20461;-78
2022/09/27 09:00:50;;;;;;;4.50;3.00;;;19.90;57.00;;;;;;4993941;28;20472;-79
2022/09/27 09:03:19;;;;;;;3.37;2.80;;;19.90;57.10;;;;;;4999355;28;20530;-78
2022/09/27 09:05:53;;;;;;;3.10;2.70;;;20.00;57.10;;;;;;5011063;28;20444;-78
2022/09/27 09:08:27;;;;;;;4.07;3.10;;;20.00;56.80;;;;;;5019633;28;20449;-78
2022/09/27 09:14:21;;;;;;;3.00;2.70;;;20.00;57.00;;;;;;4993174;28;20457;-78
2022/09/27 09:16:53;;;;;;;2.93;2.73;;;20.00;56.70;;;;;;4990991;28;20461;-78
2022/09/27 09:19:32;;;;;;;2.43;2.10;;;20.00;57.00;;;;;;5019018;28;20468;-78
2022/09/27 09:22:04;;;;;;;2.90;2.60;;;20.10;57.00;;;;;;5016878;28;20499;-78
2022/09/27 09:24:39;;;;;;;2.20;2.10;;;20.00;56.80;;;;;;5017818;28;20586;-79
2022/09/27 09:27:09;;;;;;;4.30;3.70;;;20.10;56.80;;;;;;4994342;28;20496;-78
2022/09/27 09:29:53;;;;;;;5.10;3.60;;;20.10;56.80;;;;;;4997933;28;20449;-78
2022/09/27 09:32:27;;;;;;;3.57;3.27;;;20.00;56.90;;;;;;4996321;28;20442;-79
2022/09/27 09:34:57;;;;;;;4.10;3.70;;;20.00;56.80;;;;;;4994167;28;20441;-78
2022/09/27 09:37:32;;;;;;;7.77;3.33;;;20.00;56.60;;;;;;4992018;28;20457;-77
2022/09/27 09:40:02;;;;;;;4.10;3.70;;;20.00;57.20;;;;;;4994122;28;20469;-78
2022/09/27 09:42:37;;;;;;;5.03;3.90;;;20.00;57.10;;;;;;4993593;28;20432;-79
2022/09/27 09:45:12;;;;;;;3.83;3.40;;;20.00;56.80;;;;;;4992884;28;20433;-78
2022/09/27 09:47:41;;;;;;;4.10;3.70;;;20.00;56.70;;;;;;4985582;28;20427;-78
2022/09/27 09:50:16;;;;;;;4.23;3.83;;;20.00;56.90;;;;;;4992859;28;20450;-78
2022/09/27 09:52:45;;;;;;;4.00;3.70;;;20.00;57.00;;;;;;4985714;28;20453;-77
2022/09/27 09:55:19;;;;;;;3.30;3.10;;;20.00;56.80;;;;;;4987229;28;20442;-79
2022/09/27 09:57:55;;;;;;;3.50;3.20;;;20.00;56.60;;;;;;4995122;28;20517;-79
2022/09/27 10:00:24;;;;;;;3.73;3.40;;;19.90;56.70;;;;;;4999625;28;20830;-78
2022/09/27 10:02:53;;;;;;;3.27;2.97;;;19.90;56.90;;;;;;4992056;28;20477;-78
2022/09/27 10:05:23;;;;;;;3.67;3.37;;;20.00;56.60;;;;;;4986946;28;20446;-78
2022/09/27 10:07:52;;;;;;;6.70;2.80;;;19.90;56.50;;;;;;4978041;28;20462;-78
2022/09/27 10:10:20;;;;;;;4.00;2.90;;;19.90;56.40;;;;;;4975263;28;20474;-79
2022/09/27 10:12:48;;;;;;;2.93;2.73;;;19.90;56.60;;;;;;4984415;28;20452;-78
2022/09/27 10:15:17;;;;;;;3.00;2.80;;;20.00;56.50;;;;;;4995958;28;20493;-79
2022/09/27 10:17:50;;;;;;;2.87;2.67;;;20.00;56.50;;;;;;4995296;28;20453;-76
2022/09/27 10:20:26;;;;;;;4.47;2.70;;;20.00;56.20;;;;;;5000542;28;20484;-80
2022/09/27 10:22:55;;;;;;;3.10;2.80;;;20.00;56.30;;;;;;5002056;28;20473;-79
2022/09/27 10:25:23;;;;;;;2.50;2.30;;;20.00;56.30;;;;;;4992350;28;20462;-79
2022/09/27 10:27:52;;;;;;;2.73;2.53;;;20.00;56.30;;;;;;5000686;28;20456;-80
2022/09/27 10:30:26;;;;;;;2.93;2.60;;;20.00;56.00;;;;;;5002449;28;20473;-80
2022/09/27 10:32:56;;;;;;;2.53;2.30;;;20.00;56.00;;;;;;5006701;28;20449;-81
2022/09/27 10:35:36;;;;;;;3.40;2.50;;;20.00;56.00;;;;;;5007529;28;20443;-80
2022/09/27 10:38:20;;;;;;;2.30;2.10;;;20.10;56.10;;;;;;5002926;28;20459;-79
2022/09/27 10:40:48;;;;;;;3.90;1.93;;;20.10;56.10;;;;;;4992300;28;20468;-78
2022/09/27 10:43:34;;;;;;;2.60;2.10;;;20.10;55.70;;;;;;4991936;28;20528;-77
2022/09/27 10:46:12;;;;;;;2.40;2.30;;;20.10;55.80;;;;;;4997704;28;20441;-79
2022/09/27 10:48:42;;;;;;;1.97;1.87;;;20.20;55.90;;;;;;4995604;28;20449;-78
2022/09/27 10:51:24;;;;;;;2.00;1.90;;;20.20;55.50;;;;;;5000178;28;20555;-77
2022/09/27 10:53:57;;;;;;;2.00;1.87;;;20.20;55.60;;;;;;5002633;28;20480;-78
2022/09/27 10:56:27;;;;;;;2.60;1.80;;;20.20;55.50;;;;;;5000691;28;20476;-77
2022/09/27 10:58:55;;;;;;;2.30;2.10;;;20.20;55.80;;;;;;4995191;28;20442;-78
2022/09/27 11:01:23;;;;;;;3.40;2.27;;;20.30;55.50;;;;;;4989780;28;20485;-78
2022/09/27 11:03:54;;;;;;;1.93;1.83;;;20.30;55.40;;;;;;4998417;28;20438;-79
2022/09/27 11:06:30;;;;;;;2.57;2.37;;;20.30;55.30;;;;;;4996382;28;20488;-78
2022/09/27 11:09:10;;;;;;;2.30;2.10;;;20.40;55.30;;;;;;5002133;28;20445;-78
2022/09/27 11:11:39;;;;;;;1.77;1.60;;;20.40;55.30;;;;;;5002559;28;20428;-78
2022/09/27 11:14:17;;;;;;;1.93;1.70;;;20.40;55.30;;;;;;4993761;28;20466;-79
2022/09/27 11:17:11;;;;;;;2.00;1.90;;;20.40;55.00;;;;;;4995581;28;20540;-79
2022/09/27 11:19:54;;;;;;;3.13;2.20;;;20.40;55.10;;;;;;4978166;28;20450;-80
2022/09/27 11:22:34;;;;;;;2.20;1.80;;;20.40;55.10;;;;;;4997590;28;20480;-78
2022/09/27 11:25:11;;;;;;;3.23;2.20;;;20.50;55.00;;;;;;4998817;28;20457;-78
2022/09/27 11:27:45;;;;;;;2.70;1.73;;;20.50;54.90;;;;;;5002000;28;20440;-79
2022/09/27 11:30:14;;;;;;;1.97;1.87;;;20.50;54.70;;;;;;5002984;28;20476;-79
2022/09/27 11:32:54;;;;;;;2.70;1.70;;;20.60;55.00;;;;;;5002077;28;20448;-79
2022/09/27 11:35:32;;;;;;;1.90;1.80;;;20.60;54.80;;;;;;4991679;28;20456;-79
2022/09/27 11:38:05;;;;;;;2.20;2.10;;;20.70;54.70;;;;;;4998504;28;20450;-78
2022/09/27 11:40:40;;;;;;;2.23;2.03;;;20.80;54.70;;;;;;4992700;28;20468;-78
2022/09/27 11:43:21;;;;;;;1.80;1.70;;;20.90;54.60;;;;;;4993795;28;20455;-77
2022/09/27 11:45:55;;;;;;;1.80;1.60;;;21.00;54.50;;;;;;4994214;28;20460;-78
2022/09/27 11:48:58;;;;;;;2.60;1.90;;;21.20;54.40;;;;;;4996051;28;20492;-78
2022/09/27 11:51:33;;;;;;;6.47;1.93;;;21.30;54.10;;;;;;4994664;28;20481;-77
2022/09/27 11:54:22;;;;;;;2.30;1.70;;;21.30;54.10;;;;;;4996490;28;20821;-77
2022/09/27 11:56:53;;;;;;;2.40;1.97;;;21.30;54.20;;;;;;4993399;28;20445;-77
2022/09/27 11:59:51;;;;;;;4.50;1.90;;;21.30;54.10;;;;;;4993701;28;20456;-77
2022/09/27 12:02:29;;;;;;;2.47;2.00;;;21.30;54.30;;;;;;4996468;28;20480;-78
2022/09/27 12:05:02;;;;;;;2.73;1.93;;;21.30;54.60;;;;;;4993842;28;20449;-78
2022/09/27 12:07:35;;;;;;;2.53;1.70;;;21.20;54.60;;;;;;4977290;28;20449;-77
2022/09/27 12:10:04;;;;;;;2.30;2.03;;;21.20;54.80;;;;;;4982511;28;20484;-77
2022/09/27 12:12:33;;;;;;;2.33;1.70;;;21.10;54.80;;;;;;4985875;28;20434;-77
2022/09/27 12:15:01;;;;;;;1.97;1.87;;;21.10;54.90;;;;;;4989281;28;20457;-76
2022/09/27 12:17:36;;;;;;;3.63;1.80;;;21.10;55.30;;;;;;4984377;28;20488;-78
2022/09/27 12:20:06;;;;;;;5.90;1.93;;;21.00;55.00;;;;;;4999986;28;20464;-77
2022/09/27 12:22:37;;;;;;;2.50;1.80;;;21.00;55.20;;;;;;4987417;28;20505;-77
2022/09/27 12:25:26;;;;;;;3.10;2.13;;;20.90;55.20;;;;;;4990540;28;20429;-77
2022/09/27 12:27:56;;;;;;;1.70;1.60;;;20.90;55.30;;;;;;4986205;28;20437;-78
2022/09/27 12:30:24;;;;;;;2.43;1.60;;;20.80;55.50;;;;;;4992398;28;20549;-77
2022/09/27 12:32:55;;;;;;;2.03;1.83;;;20.80;55.50;;;;;;4995155;28;20453;-77
2022/09/27 12:35:25;;;;;;;1.90;1.80;;;20.70;55.50;;;;;;5003981;28;20997;-77
2022/09/27 12:37:58;;;;;;;1.93;1.60;;;20.80;55.80;;;;;;4996923;28;20452;-77
2022/09/27 12:40:27;;;;;;;2.60;1.70;;;20.70;55.50;;;;;;4993117;28;20449;-77
2022/09/27 12:42:58;;;;;;;5.67;1.70;;;20.70;55.80;;;;;;4990126;28;20473;-77
2022/09/27 12:45:33;;;;;;;2.33;1.77;;;20.70;55.90;;;;;;4995379;28;20511;-77
2022/09/27 12:48:04;;;;;;;2.13;2.03;;;20.60;55.90;;;;;;4982629;28;20470;-77
2022/09/27 12:50:36;;;;;;;3.13;2.07;;;20.60;56.10;;;;;;4991116;28;20476;-76
2022/09/27 12:53:11;;;;;;;5.83;1.90;;;20.60;55.90;;;;;;4995353;28;20437;-76
2022/09/27 12:56:14;;;;;;;2.10;1.90;;;20.60;56.00;;;;;;4993739;28;20444;-76
2022/09/27 12:58:58;;;;;;;2.80;1.90;;;20.60;56.10;;;;;;4993186;28;20441;-76
2022/09/27 13:01:34;;;;;;;2.60;1.73;;;20.70;56.00;;;;;;4990583;28;20465;-76
2022/09/27 13:04:10;;;;;;;2.50;1.90;;;20.70;56.00;;;;;;4992529;28;20473;-77
2022/09/27 13:06:56;;;;;;;5.83;2.60;;;20.70;56.10;;;;;;4986439;28;20468;-76
2022/09/27 13:09:42;;;;;;;5.20;3.00;;;20.80;56.00;;;;;;4987769;28;20423;-77
2022/09/27 13:12:10;;;;;;;3.17;2.97;;;20.70;55.80;;;;;;4989756;28;20464;-76
2022/09/27 13:14:46;;;;;;;3.77;3.20;;;20.80;56.00;;;;;;4991126;28;20437;-77